sensor_id;sensor_type;location;lat;lon;timestamp;temperature;humidity
16863;DHT22;52193;48.216;-1.698;2022-09-09T00:00:19;17.10;99.90
16863;DHT22;52193;48.216;-1.698;2022-09-09T00:02:53;17.00;99.90
16863;DHT22;52193;48.216;-1.698;2022-09-09T00:05:28;17.00;99.90
16863;DHT22;52193;48.216;-1.698;2022-09-09T00:07:59;17.00;99.90
16863;DHT22;52193;48.216;-1.698;2022-09-09T00:10:33;16.90;99.90
16863;DHT22;52193;48.216;-1.698;2022-09-09T00:13:08;16.90;99.90
16863;DHT22;52193;48.216;-1.698;2022-09-09T00:15:46;16.70;99.90
16863;DHT22;52193;48.216;-1.698;2022-09-09T00:18:19;16.70;99.90
16863;DHT22;52193;48.216;-1.698;2022-09-09T00:20:54;16.70;99.90
16863;DHT22;52193;48.216;-1.698;2022-09-09T00:23:25;16.70;99.90
16863;DHT22;52193;48.216;-1.698;2022-09-09T00:26:01;16.70;99.90
16863;DHT22;52193;48.216;-1.698;2022-09-09T00:28:32;16.70;99.90
16863;DHT22;52193;48.216;-1.698;2022-09-09T00:31:08;16.80;99.90
16863;DHT22;52193;48.216;-1.698;2022-09-09T00:33:38;16.80;99.90
16863;DHT22;52193;48.216;-1.698;2022-09-09T00:36:12;16.90;99.90
16863;DHT22;52193;48.216;-1.698;2022-09-09T00:38:43;16.90;99.90
16863;DHT22;52193;48.216;-1.698;2022-09-09T00:41:17;16.90;99.90
16863;DHT22;52193;48.216;-1.698;2022-09-09T00:43:53;16.90;99.90
16863;DHT22;52193;48.216;-1.698;2022-09-09T00:46:48;16.80;99.90
16863;DHT22;52193;48.216;-1.698;2022-09-09T00:49:27;16.90;99.90
16863;DHT22;52193;48.216;-1.698;2022-09-09T00:52:08;16.90;99.90
16863;DHT22;52193;48.216;-1.698;2022-09-09T00:54:45;16.90;99.90
16863;DHT22;52193;48.216;-1.698;2022-09-09T00:57:25;17.00;99.90
16863;DHT22;52193;48.216;-1.698;2022-09-09T00:59:59;17.00;99.90
16863;DHT22;52193;48.216;-1.698;2022-09-09T01:02:37;16.90;99.90
16863;DHT22;52193;48.216;-1.698;2022-09-09T01:05:11;16.90;99.90
16863;DHT22;52193;48.216;-1.698;2022-09-09T01:07:44;16.80;99.90
16863;DHT22;52193;48.216;-1.698;2022-09-09T01:10:21;16.90;99.90
16863;DHT22;52193;48.216;-1.698;2022-09-09T01:12:56;16.80;99.90
16863;DHT22;52193;48.216;-1.698;2022-09-09T01:15:27;16.70;99.90
16863;DHT22;52193;48.216;-1.698;2022-09-09T01:17:59;16.70;99.90
16863;DHT22;52193;48.216;-1.698;2022-09-09T01:20:31;16.70;99.90
16863;DHT22;52193;48.216;-1.698;2022-09-09T01:23:29;16.60;99.90
16863;DHT22;52193;48.216;-1.698;2022-09-09T01:26:20;16.70;99.90
16863;DHT22;52193;48.216;-1.698;2022-09-09T01:28:50;16.70;99.90
16863;DHT22;52193;48.216;-1.698;2022-09-09T01:31:20;16.70;99.90
16863;DHT22;52193;48.216;-1.698;2022-09-09T01:33:48;16.60;99.90
16863;DHT22;52193;48.216;-1.698;2022-09-09T01:36:20;16.70;99.90
16863;DHT22;52193;48.216;-1.698;2022-09-09T01:38:48;16.70;99.90
16863;DHT22;52193;48.216;-1.698;2022-09-09T01:41:15;16.70;99.90
16863;DHT22;52193;48.216;-1.698;2022-09-09T01:43:43;16.70;99.90
16863;DHT22;52193;48.216;-1.698;2022-09-09T01:46:12;16.60;99.90
16863;DHT22;52193;48.216;-1.698;2022-09-09T01:48:57;16.60;99.90
16863;DHT22;52193;48.216;-1.698;2022-09-09T01:51:44;16.70;99.90
16863;DHT22;52193;48.216;-1.698;2022-09-09T01:54:31;16.60;99.90
16863;DHT22;52193;48.216;-1.698;2022-09-09T01:57:08;16.60;99.90
16863;DHT22;52193;48.216;-1.698;2022-09-09T01:59:49;16.60;99.90
16863;DHT22;52193;48.216;-1.698;2022-09-09T02:02:23;16.60;99.90
16863;DHT22;52193;48.216;-1.698;2022-09-09T02:04:54;16.70;99.90
16863;DHT22;52193;48.216;-1.698;2022-09-09T02:07:31;16.80;99.90
16863;DHT22;52193;48.216;-1.698;2022-09-09T02:10:10;16.70;99.90
16863;DHT22;52193;48.216;-1.698;2022-09-09T02:12:41;16.70;99.90
16863;DHT22;52193;48.216;-1.698;2022-09-09T02:15:18;16.60;99.90
16863;DHT22;52193;48.216;-1.698;2022-09-09T02:17:47;16.60;99.90
16863;DHT22;52193;48.216;-1.698;2022-09-09T02:20:16;16.60;99.90
16863;DHT22;52193;48.216;-1.698;2022-09-09T02:22:47;16.50;99.90
16863;DHT22;52193;48.216;-1.698;2022-09-09T02:25:18;16.40;99.90
16863;DHT22;52193;48.216;-1.698;2022-09-09T02:27:47;16.40;99.90
16863;DHT22;52193;48.216;-1.698;2022-09-09T02:30:19;16.50;99.90
16863;DHT22;52193;48.216;-1.698;2022-09-09T02:32:49;16.50;99.90
16863;DHT22;52193;48.216;-1.698;2022-09-09T02:35:20;16.50;99.90
16863;DHT22;52193;48.216;-1.698;2022-09-09T02:37:48;16.50;99.90
16863;DHT22;52193;48.216;-1.698;2022-09-09T02:40:17;16.40;99.90
16863;DHT22;52193;48.216;-1.698;2022-09-09T02:42:45;16.50;99.90
16863;DHT22;52193;48.216;-1.698;2022-09-09T02:45:16;16.50;99.90
16863;DHT22;52193;48.216;-1.698;2022-09-09T02:47:50;16.50;99.90
16863;DHT22;52193;48.216;-1.698;2022-09-09T02:50:23;16.50;99.90
16863;DHT22;52193;48.216;-1.698;2022-09-09T02:52:58;16.50;99.90
16863;DHT22;52193;48.216;-1.698;2022-09-09T02:55:35;16.50;99.90
16863;DHT22;52193;48.216;-1.698;2022-09-09T02:58:07;16.60;99.90
16863;DHT22;52193;48.216;-1.698;2022-09-09T03:00:35;16.70;99.90
16863;DHT22;52193;48.216;-1.698;2022-09-09T03:03:04;16.70;99.90
16863;DHT22;52193;48.216;-1.698;2022-09-09T03:05:32;16.70;99.90
16863;DHT22;52193;48.216;-1.698;2022-09-09T03:07:59;16.60;99.90
16863;DHT22;52193;48.216;-1.698;2022-09-09T03:10:26;16.70;99.90
16863;DHT22;52193;48.216;-1.698;2022-09-09T03:12:52;16.60;99.90
16863;DHT22;52193;48.216;-1.698;2022-09-09T03:15:21;16.70;99.90
16863;DHT22;52193;48.216;-1.698;2022-09-09T03:17:48;16.60;99.90
16863;DHT22;52193;48.216;-1.698;2022-09-09T03:20:16;16.50;99.90
16863;DHT22;52193;48.216;-1.698;2022-09-09T03:22:43;16.60;99.90
16863;DHT22;52193;48.216;-1.698;2022-09-09T03:25:11;16.60;99.90
16863;DHT22;52193;48.216;-1.698;2022-09-09T03:27:37;16.70;99.90
16863;DHT22;52193;48.216;-1.698;2022-09-09T03:30:05;16.60;99.90
16863;DHT22;52193;48.216;-1.698;2022-09-09T03:32:32;16.50;99.90
16863;DHT22;52193;48.216;-1.698;2022-09-09T03:34:59;16.50;99.90
16863;DHT22;52193;48.216;-1.698;2022-09-09T03:37:28;16.60;99.90
16863;DHT22;52193;48.216;-1.698;2022-09-09T03:39:55;16.60;99.90
16863;DHT22;52193;48.216;-1.698;2022-09-09T03:42:21;16.60;99.90
16863;DHT22;52193;48.216;-1.698;2022-09-09T03:44:48;16.60;99.90
16863;DHT22;52193;48.216;-1.698;2022-09-09T03:47:17;16.60;99.90
16863;DHT22;52193;48.216;-1.698;2022-09-09T03:49:45;16.70;99.90
16863;DHT22;52193;48.216;-1.698;2022-09-09T03:52:12;16.70;99.90
16863;DHT22;52193;48.216;-1.698;2022-09-09T03:54:40;16.50;99.90
16863;DHT22;52193;48.216;-1.698;2022-09-09T03:57:08;16.60;99.90
16863;DHT22;52193;48.216;-1.698;2022-09-09T03:59:36;16.60;99.90
16863;DHT22;52193;48.216;-1.698;2022-09-09T04:02:04;16.60;99.90
16863;DHT22;52193;48.216;-1.698;2022-09-09T04:04:31;16.60;99.90
16863;DHT22;52193;48.216;-1.698;2022-09-09T04:06:58;16.60;99.90
16863;DHT22;52193;48.216;-1.698;2022-09-09T04:09:25;16.50;99.90
16863;DHT22;52193;48.216;-1.698;2022-09-09T04:11:53;16.50;99.90
16863;DHT22;52193;48.216;-1.698;2022-09-09T04:14:20;16.50;99.90
16863;DHT22;52193;48.216;-1.698;2022-09-09T04:16:47;16.50;99.90
16863;DHT22;52193;48.216;-1.698;2022-09-09T04:19:14;16.50;99.90
16863;DHT22;52193;48.216;-1.698;2022-09-09T04:21:42;16.50;99.90
16863;DHT22;52193;48.216;-1.698;2022-09-09T04:24:09;16.50;99.90
16863;DHT22;52193;48.216;-1.698;2022-09-09T04:26:36;16.50;99.90
16863;DHT22;52193;48.216;-1.698;2022-09-09T04:29:05;16.40;99.90
16863;DHT22;52193;48.216;-1.698;2022-09-09T04:31:32;16.40;99.90
16863;DHT22;52193;48.216;-1.698;2022-09-09T04:33:59;16.50;99.90
16863;DHT22;52193;48.216;-1.698;2022-09-09T04:36:30;16.40;99.90
16863;DHT22;52193;48.216;-1.698;2022-09-09T04:38:58;16.40;99.90
16863;DHT22;52193;48.216;-1.698;2022-09-09T04:41:25;16.40;99.90
16863;DHT22;52193;48.216;-1.698;2022-09-09T04:43:52;16.40;99.90
16863;DHT22;52193;48.216;-1.698;2022-09-09T04:46:21;16.20;99.90
16863;DHT22;52193;48.216;-1.698;2022-09-09T04:48:48;16.20;99.90
16863;DHT22;52193;48.216;-1.698;2022-09-09T04:51:16;16.30;99.90
16863;DHT22;52193;48.216;-1.698;2022-09-09T04:53:43;16.30;99.90
16863;DHT22;52193;48.216;-1.698;2022-09-09T04:56:12;16.30;99.90
16863;DHT22;52193;48.216;-1.698;2022-09-09T04:58:40;16.20;99.90
16863;DHT22;52193;48.216;-1.698;2022-09-09T05:01:09;16.30;99.90
16863;DHT22;52193;48.216;-1.698;2022-09-09T05:03:39;16.20;99.90
16863;DHT22;52193;48.216;-1.698;2022-09-09T05:06:08;16.10;99.90
16863;DHT22;52193;48.216;-1.698;2022-09-09T05:08:36;16.10;99.90
16863;DHT22;52193;48.216;-1.698;2022-09-09T05:11:03;16.20;99.90
16863;DHT22;52193;48.216;-1.698;2022-09-09T05:13:30;16.20;99.90
16863;DHT22;52193;48.216;-1.698;2022-09-09T05:15:58;16.20;99.90
16863;DHT22;52193;48.216;-1.698;2022-09-09T05:18:25;16.30;99.90
16863;DHT22;52193;48.216;-1.698;2022-09-09T05:20:58;16.30;99.90
16863;DHT22;52193;48.216;-1.698;2022-09-09T05:23:26;16.30;99.90
16863;DHT22;52193;48.216;-1.698;2022-09-09T05:25:56;16.30;99.90
16863;DHT22;52193;48.216;-1.698;2022-09-09T05:28:24;16.30;99.90
16863;DHT22;52193;48.216;-1.698;2022-09-09T05:30:56;16.20;99.90
16863;DHT22;52193;48.216;-1.698;2022-09-09T05:33:24;16.20;99.90
16863;DHT22;52193;48.216;-1.698;2022-09-09T05:35:57;16.30;99.90
16863;DHT22;52193;48.216;-1.698;2022-09-09T05:38:24;16.30;99.90
16863;DHT22;52193;48.216;-1.698;2022-09-09T05:40:52;16.40;99.90
16863;DHT22;52193;48.216;-1.698;2022-09-09T05:43:19;16.30;99.90
16863;DHT22;52193;48.216;-1.698;2022-09-09T05:45:46;16.20;99.90
16863;DHT22;52193;48.216;-1.698;2022-09-09T05:48:14;16.20;99.90
16863;DHT22;52193;48.216;-1.698;2022-09-09T05:50:41;16.20;99.90
16863;DHT22;52193;48.216;-1.698;2022-09-09T05:53:10;16.10;99.90
16863;DHT22;52193;48.216;-1.698;2022-09-09T05:55:37;16.10;99.90
16863;DHT22;52193;48.216;-1.698;2022-09-09T05:58:04;16.10;99.90
16863;DHT22;52193;48.216;-1.698;2022-09-09T06:00:31;16.10;99.90
16863;DHT22;52193;48.216;-1.698;2022-09-09T06:02:58;16.10;99.90
16863;DHT22;52193;48.216;-1.698;2022-09-09T06:05:25;16.20;99.90
16863;DHT22;52193;48.216;-1.698;2022-09-09T06:07:53;16.10;99.90
16863;DHT22;52193;48.216;-1.698;2022-09-09T06:10:22;16.10;99.90
16863;DHT22;52193;48.216;-1.698;2022-09-09T06:12:52;16.10;99.90
16863;DHT22;52193;48.216;-1.698;2022-09-09T06:15:20;16.20;99.90
16863;DHT22;52193;48.216;-1.698;2022-09-09T06:17:47;16.20;99.90
16863;DHT22;52193;48.216;-1.698;2022-09-09T06:20:21;16.30;99.90
16863;DHT22;52193;48.216;-1.698;2022-09-09T06:22:48;16.30;99.90
16863;DHT22;52193;48.216;-1.698;2022-09-09T06:25:15;16.30;99.90
16863;DHT22;52193;48.216;-1.698;2022-09-09T06:27:48;16.30;99.90
16863;DHT22;52193;48.216;-1.698;2022-09-09T06:30:16;16.40;99.90
16863;DHT22;52193;48.216;-1.698;2022-09-09T06:32:44;16.40;99.90
16863;DHT22;52193;48.216;-1.698;2022-09-09T06:35:10;16.40;99.90
16863;DHT22;52193;48.216;-1.698;2022-09-09T06:37:39;16.40;99.90
16863;DHT22;52193;48.216;-1.698;2022-09-09T06:40:07;16.40;99.90
16863;DHT22;52193;48.216;-1.698;2022-09-09T06:42:34;16.40;99.90
16863;DHT22;52193;48.216;-1.698;2022-09-09T06:45:02;16.40;99.90
16863;DHT22;52193;48.216;-1.698;2022-09-09T06:47:29;16.40;99.90
16863;DHT22;52193;48.216;-1.698;2022-09-09T06:49:56;16.40;99.90
16863;DHT22;52193;48.216;-1.698;2022-09-09T06:52:23;16.40;99.90
16863;DHT22;52193;48.216;-1.698;2022-09-09T06:54:51;16.50;99.90
16863;DHT22;52193;48.216;-1.698;2022-09-09T06:57:19;16.50;99.90
16863;DHT22;52193;48.216;-1.698;2022-09-09T06:59:46;16.50;99.90
16863;DHT22;52193;48.216;-1.698;2022-09-09T07:02:15;16.50;99.90
16863;DHT22;52193;48.216;-1.698;2022-09-09T07:04:42;16.60;99.90
16863;DHT22;52193;48.216;-1.698;2022-09-09T07:07:09;16.60;99.90
16863;DHT22;52193;48.216;-1.698;2022-09-09T07:09:39;16.60;99.90
16863;DHT22;52193;48.216;-1.698;2022-09-09T07:12:06;16.70;99.90
16863;DHT22;52193;48.216;-1.698;2022-09-09T07:14:33;16.80;99.90
16863;DHT22;52193;48.216;-1.698;2022-09-09T07:17:03;16.90;99.90
16863;DHT22;52193;48.216;-1.698;2022-09-09T07:19:31;16.90;99.90
16863;DHT22;52193;48.216;-1.698;2022-09-09T07:21:59;17.00;99.90
16863;DHT22;52193;48.216;-1.698;2022-09-09T07:24:28;17.00;99.90
16863;DHT22;52193;48.216;-1.698;2022-09-09T07:26:56;17.00;99.90
16863;DHT22;52193;48.216;-1.698;2022-09-09T07:29:23;17.00;99.90
16863;DHT22;52193;48.216;-1.698;2022-09-09T07:31:50;17.00;99.90
16863;DHT22;52193;48.216;-1.698;2022-09-09T07:34:17;17.00;99.90
16863;DHT22;52193;48.216;-1.698;2022-09-09T07:36:45;17.00;99.90
16863;DHT22;52193;48.216;-1.698;2022-09-09T07:39:14;17.10;99.90
16863;DHT22;52193;48.216;-1.698;2022-09-09T07:41:44;17.10;99.90
16863;DHT22;52193;48.216;-1.698;2022-09-09T07:44:13;17.10;99.90
16863;DHT22;52193;48.216;-1.698;2022-09-09T07:46:40;17.00;99.90
16863;DHT22;52193;48.216;-1.698;2022-09-09T07:49:09;16.90;99.90
16863;DHT22;52193;48.216;-1.698;2022-09-09T07:51:37;17.00;99.90
16863;DHT22;52193;48.216;-1.698;2022-09-09T07:54:08;17.00;99.90
16863;DHT22;52193;48.216;-1.698;2022-09-09T07:56:35;17.00;99.90
16863;DHT22;52193;48.216;-1.698;2022-09-09T07:59:03;16.90;99.90
16863;DHT22;52193;48.216;-1.698;2022-09-09T08:01:34;17.00;99.90
16863;DHT22;52193;48.216;-1.698;2022-09-09T08:04:05;17.10;99.90
16863;DHT22;52193;48.216;-1.698;2022-09-09T08:06:35;17.10;99.90
16863;DHT22;52193;48.216;-1.698;2022-09-09T08:09:03;17.10;99.90
16863;DHT22;52193;48.216;-1.698;2022-09-09T08:11:31;17.20;99.90
16863;DHT22;52193;48.216;-1.698;2022-09-09T08:14:00;17.20;99.90
16863;DHT22;52193;48.216;-1.698;2022-09-09T08:16:29;17.20;99.90
16863;DHT22;52193;48.216;-1.698;2022-09-09T08:18:57;17.20;99.90
16863;DHT22;52193;48.216;-1.698;2022-09-09T08:21:26;17.30;99.90
16863;DHT22;52193;48.216;-1.698;2022-09-09T08:23:54;17.40;99.90
16863;DHT22;52193;48.216;-1.698;2022-09-09T08:26:23;17.40;99.90
16863;DHT22;52193;48.216;-1.698;2022-09-09T08:28:54;17.40;99.90
16863;DHT22;52193;48.216;-1.698;2022-09-09T08:31:24;17.50;99.90
16863;DHT22;52193;48.216;-1.698;2022-09-09T08:33:51;17.50;99.90
16863;DHT22;52193;48.216;-1.698;2022-09-09T08:36:20;17.40;99.90
16863;DHT22;52193;48.216;-1.698;2022-09-09T08:38:48;17.50;99.90
16863;DHT22;52193;48.216;-1.698;2022-09-09T08:44:12;17.60;99.90
16863;DHT22;52193;48.216;-1.698;2022-09-09T08:46:46;17.70;99.90
16863;DHT22;52193;48.216;-1.698;2022-09-09T08:49:28;17.70;99.90
16863;DHT22;52193;48.216;-1.698;2022-09-09T08:51:59;17.70;99.90
16863;DHT22;52193;48.216;-1.698;2022-09-09T08:54:30;17.70;99.90
16863;DHT22;52193;48.216;-1.698;2022-09-09T08:56:59;17.60;99.90
16863;DHT22;52193;48.216;-1.698;2022-09-09T08:59:27;17.60;99.90
16863;DHT22;52193;48.216;-1.698;2022-09-09T09:02:00;17.70;99.90
16863;DHT22;52193;48.216;-1.698;2022-09-09T09:04:36;17.70;99.90
16863;DHT22;52193;48.216;-1.698;2022-09-09T09:07:12;17.70;99.90
16863;DHT22;52193;48.216;-1.698;2022-09-09T09:09:49;17.70;99.90
16863;DHT22;52193;48.216;-1.698;2022-09-09T09:12:20;17.60;99.90
16863;DHT22;52193;48.216;-1.698;2022-09-09T09:14:49;17.60;99.90
16863;DHT22;52193;48.216;-1.698;2022-09-09T09:17:19;17.70;99.90
16863;DHT22;52193;48.216;-1.698;2022-09-09T09:19:48;17.80;99.90
16863;DHT22;52193;48.216;-1.698;2022-09-09T09:22:18;17.90;99.90
16863;DHT22;52193;48.216;-1.698;2022-09-09T09:24:52;17.90;99.90
16863;DHT22;52193;48.216;-1.698;2022-09-09T09:27:28;17.90;99.90
16863;DHT22;52193;48.216;-1.698;2022-09-09T09:30:00;17.90;99.90
16863;DHT22;52193;48.216;-1.698;2022-09-09T09:32:32;17.90;99.90
16863;DHT22;52193;48.216;-1.698;2022-09-09T09:35:02;17.90;99.90
16863;DHT22;52193;48.216;-1.698;2022-09-09T09:37:33;18.00;99.90
16863;DHT22;52193;48.216;-1.698;2022-09-09T09:40:10;18.00;99.90
16863;DHT22;52193;48.216;-1.698;2022-09-09T09:42:47;18.00;99.90
16863;DHT22;52193;48.216;-1.698;2022-09-09T09:45:23;18.10;99.90
16863;DHT22;52193;48.216;-1.698;2022-09-09T09:47:59;18.20;99.90
16863;DHT22;52193;48.216;-1.698;2022-09-09T09:50:28;18.30;99.90
16863;DHT22;52193;48.216;-1.698;2022-09-09T09:52:56;18.40;99.90
16863;DHT22;52193;48.216;-1.698;2022-09-09T09:55:25;18.40;99.90
16863;DHT22;52193;48.216;-1.698;2022-09-09T09:57:52;18.50;99.90
16863;DHT22;52193;48.216;-1.698;2022-09-09T10:00:23;18.50;99.90
16863;DHT22;52193;48.216;-1.698;2022-09-09T10:02:50;18.60;99.90
16863;DHT22;52193;48.216;-1.698;2022-09-09T10:05:21;18.60;99.90
16863;DHT22;52193;48.216;-1.698;2022-09-09T10:08:01;18.70;99.90
16863;DHT22;52193;48.216;-1.698;2022-09-09T10:10:37;18.80;99.90
16863;DHT22;52193;48.216;-1.698;2022-09-09T10:13:11;18.80;99.90
16863;DHT22;52193;48.216;-1.698;2022-09-09T10:15:53;18.90;99.90
16863;DHT22;52193;48.216;-1.698;2022-09-09T10:18:38;18.90;99.90
16863;DHT22;52193;48.216;-1.698;2022-09-09T10:21:19;19.00;99.90
16863;DHT22;52193;48.216;-1.698;2022-09-09T10:24:00;19.10;99.90
16863;DHT22;52193;48.216;-1.698;2022-09-09T10:26:38;19.20;99.90
16863;DHT22;52193;48.216;-1.698;2022-09-09T10:29:27;19.20;99.90
16863;DHT22;52193;48.216;-1.698;2022-09-09T10:32:03;19.20;99.90
16863;DHT22;52193;48.216;-1.698;2022-09-09T10:34:47;19.30;99.90
16863;DHT22;52193;48.216;-1.698;2022-09-09T10:37:27;19.30;99.90
16863;DHT22;52193;48.216;-1.698;2022-09-09T10:40:04;19.20;99.90
16863;DHT22;52193;48.216;-1.698;2022-09-09T10:42:33;19.20;99.90
16863;DHT22;52193;48.216;-1.698;2022-09-09T10:45:13;19.20;99.90
16863;DHT22;52193;48.216;-1.698;2022-09-09T10:48:00;19.20;99.90
16863;DHT22;52193;48.216;-1.698;2022-09-09T10:50:51;19.20;99.90
16863;DHT22;52193;48.216;-1.698;2022-09-09T10:53:30;19.20;99.90
16863;DHT22;52193;48.216;-1.698;2022-09-09T10:56:05;19.30;99.90
16863;DHT22;52193;48.216;-1.698;2022-09-09T10:58:37;19.30;99.90
16863;DHT22;52193;48.216;-1.698;2022-09-09T11:01:13;19.40;99.90
16863;DHT22;52193;48.216;-1.698;2022-09-09T11:03:46;19.50;99.90
16863;DHT22;52193;48.216;-1.698;2022-09-09T11:06:19;19.50;99.90
16863;DHT22;52193;48.216;-1.698;2022-09-09T11:08:49;19.40;99.90
16863;DHT22;52193;48.216;-1.698;2022-09-09T11:11:22;19.50;99.90
16863;DHT22;52193;48.216;-1.698;2022-09-09T11:13:55;19.40;99.90
16863;DHT22;52193;48.216;-1.698;2022-09-09T11:16:29;19.50;99.90
16863;DHT22;52193;48.216;-1.698;2022-09-09T11:19:02;19.50;99.90
16863;DHT22;52193;48.216;-1.698;2022-09-09T11:21:32;19.50;99.90
16863;DHT22;52193;48.216;-1.698;2022-09-09T11:24:06;19.60;99.90
16863;DHT22;52193;48.216;-1.698;2022-09-09T11:26:38;19.60;99.90
16863;DHT22;52193;48.216;-1.698;2022-09-09T11:29:19;19.70;99.90
16863;DHT22;52193;48.216;-1.698;2022-09-09T11:32:01;19.70;99.90
16863;DHT22;52193;48.216;-1.698;2022-09-09T11:34:49;19.70;99.90
16863;DHT22;52193;48.216;-1.698;2022-09-09T11:37:50;19.70;99.90
16863;DHT22;52193;48.216;-1.698;2022-09-09T11:40:23;19.80;99.90
16863;DHT22;52193;48.216;-1.698;2022-09-09T11:43:02;19.90;99.90
16863;DHT22;52193;48.216;-1.698;2022-09-09T11:45:30;20.00;99.90
16863;DHT22;52193;48.216;-1.698;2022-09-09T11:48:00;20.10;99.90
16863;DHT22;52193;48.216;-1.698;2022-09-09T11:50:31;20.20;99.90
16863;DHT22;52193;48.216;-1.698;2022-09-09T11:53:19;20.40;99.90
16863;DHT22;52193;48.216;-1.698;2022-09-09T11:56:05;20.70;99.90
16863;DHT22;52193;48.216;-1.698;2022-09-09T11:58:37;20.90;99.90
16863;DHT22;52193;48.216;-1.698;2022-09-09T12:04:05;21.30;99.90
16863;DHT22;52193;48.216;-1.698;2022-09-09T12:06:44;21.50;99.90
16863;DHT22;52193;48.216;-1.698;2022-09-09T12:09:20;21.60;99.90
16863;DHT22;52193;48.216;-1.698;2022-09-09T12:11:49;21.90;99.90
16863;DHT22;52193;48.216;-1.698;2022-09-09T12:14:21;22.20;99.90
16863;DHT22;52193;48.216;-1.698;2022-09-09T12:16:49;22.50;99.90
16863;DHT22;52193;48.216;-1.698;2022-09-09T12:19:19;22.70;99.90
16863;DHT22;52193;48.216;-1.698;2022-09-09T12:21:54;22.80;99.90
16863;DHT22;52193;48.216;-1.698;2022-09-09T12:24:30;22.90;99.90
16863;DHT22;52193;48.216;-1.698;2022-09-09T12:27:02;22.70;99.90
16863;DHT22;52193;48.216;-1.698;2022-09-09T12:29:38;22.50;99.90
16863;DHT22;52193;48.216;-1.698;2022-09-09T12:32:10;22.30;99.90
16863;DHT22;52193;48.216;-1.698;2022-09-09T12:34:39;22.30;99.90
16863;DHT22;52193;48.216;-1.698;2022-09-09T12:37:18;22.30;99.90
16863;DHT22;52193;48.216;-1.698;2022-09-09T12:39:51;22.30;99.90
16863;DHT22;52193;48.216;-1.698;2022-09-09T12:42:21;22.10;99.90
16863;DHT22;52193;48.216;-1.698;2022-09-09T12:44:54;22.20;99.90
16863;DHT22;52193;48.216;-1.698;2022-09-09T12:47:23;22.30;99.90
16863;DHT22;52193;48.216;-1.698;2022-09-09T12:49:52;22.50;99.90
16863;DHT22;52193;48.216;-1.698;2022-09-09T12:52:27;22.60;99.90
16863;DHT22;52193;48.216;-1.698;2022-09-09T12:54:56;22.60;99.90
16863;DHT22;52193;48.216;-1.698;2022-09-09T12:57:24;22.50;99.90
16863;DHT22;52193;48.216;-1.698;2022-09-09T12:59:52;22.30;99.90
16863;DHT22;52193;48.216;-1.698;2022-09-09T13:02:21;22.10;99.90
16863;DHT22;52193;48.216;-1.698;2022-09-09T13:04:49;21.80;99.90
16863;DHT22;52193;48.216;-1.698;2022-09-09T13:07:18;21.50;99.90
16863;DHT22;52193;48.216;-1.698;2022-09-09T13:09:47;21.30;99.90
16863;DHT22;52193;48.216;-1.698;2022-09-09T13:12:17;21.20;99.90
16863;DHT22;52193;48.216;-1.698;2022-09-09T13:14:47;20.90;99.90
16863;DHT22;52193;48.216;-1.698;2022-09-09T13:17:20;20.60;99.90
16863;DHT22;52193;48.216;-1.698;2022-09-09T13:19:49;20.20;99.90
16863;DHT22;52193;48.216;-1.698;2022-09-09T13:22:21;19.70;99.90
16863;DHT22;52193;48.216;-1.698;2022-09-09T13:25:04;19.60;99.90
16863;DHT22;52193;48.216;-1.698;2022-09-09T13:27:33;19.40;99.90
16863;DHT22;52193;48.216;-1.698;2022-09-09T13:30:19;19.30;99.90
16863;DHT22;52193;48.216;-1.698;2022-09-09T13:32:48;19.30;99.90
16863;DHT22;52193;48.216;-1.698;2022-09-09T13:35:26;19.20;99.90
16863;DHT22;52193;48.216;-1.698;2022-09-09T13:37:53;19.20;99.90
16863;DHT22;52193;48.216;-1.698;2022-09-09T13:40:23;19.00;99.90
16863;DHT22;52193;48.216;-1.698;2022-09-09T13:42:52;18.90;99.90
16863;DHT22;52193;48.216;-1.698;2022-09-09T13:45:23;18.80;99.90
16863;DHT22;52193;48.216;-1.698;2022-09-09T13:47:52;18.70;99.90
16863;DHT22;52193;48.216;-1.698;2022-09-09T13:50:23;18.80;99.90
16863;DHT22;52193;48.216;-1.698;2022-09-09T13:52:51;18.60;99.90
16863;DHT22;52193;48.216;-1.698;2022-09-09T13:55:19;18.50;99.90
16863;DHT22;52193;48.216;-1.698;2022-09-09T13:57:56;18.50;99.90
16863;DHT22;52193;48.216;-1.698;2022-09-09T14:00:24;18.50;99.90
16863;DHT22;52193;48.216;-1.698;2022-09-09T14:02:51;18.50;99.90
16863;DHT22;52193;48.216;-1.698;2022-09-09T14:05:20;18.50;99.90
16863;DHT22;52193;48.216;-1.698;2022-09-09T14:07:48;18.40;99.90
16863;DHT22;52193;48.216;-1.698;2022-09-09T14:10:16;18.40;99.90
16863;DHT22;52193;48.216;-1.698;2022-09-09T14:12:43;18.70;99.90
16863;DHT22;52193;48.216;-1.698;2022-09-09T14:15:12;18.70;99.90
16863;DHT22;52193;48.216;-1.698;2022-09-09T14:17:40;18.60;99.90
16863;DHT22;52193;48.216;-1.698;2022-09-09T14:20:08;18.80;99.90
16863;DHT22;52193;48.216;-1.698;2022-09-09T14:22:36;19.00;99.90
16863;DHT22;52193;48.216;-1.698;2022-09-09T14:25:05;19.20;99.90
16863;DHT22;52193;48.216;-1.698;2022-09-09T14:27:32;19.20;99.90
16863;DHT22;52193;48.216;-1.698;2022-09-09T14:30:00;19.20;99.90
16863;DHT22;52193;48.216;-1.698;2022-09-09T14:32:28;19.20;99.90
16863;DHT22;52193;48.216;-1.698;2022-09-09T14:34:55;19.20;99.90
16863;DHT22;52193;48.216;-1.698;2022-09-09T14:37:22;19.30;99.90
16863;DHT22;52193;48.216;-1.698;2022-09-09T14:39:49;19.50;99.90
16863;DHT22;52193;48.216;-1.698;2022-09-09T14:42:17;19.70;99.90
16863;DHT22;52193;48.216;-1.698;2022-09-09T14:44:44;19.80;99.90
16863;DHT22;52193;48.216;-1.698;2022-09-09T14:47:11;19.80;99.90
16863;DHT22;52193;48.216;-1.698;2022-09-09T14:49:39;19.70;99.90
16863;DHT22;52193;48.216;-1.698;2022-09-09T14:52:06;19.70;99.90
16863;DHT22;52193;48.216;-1.698;2022-09-09T14:54:34;19.80;99.90
16863;DHT22;52193;48.216;-1.698;2022-09-09T14:57:01;19.80;99.90
16863;DHT22;52193;48.216;-1.698;2022-09-09T14:59:28;19.90;99.90
16863;DHT22;52193;48.216;-1.698;2022-09-09T15:01:55;19.90;99.90
16863;DHT22;52193;48.216;-1.698;2022-09-09T15:04:22;20.20;99.90
16863;DHT22;52193;48.216;-1.698;2022-09-09T15:06:50;21.00;99.90
16863;DHT22;52193;48.216;-1.698;2022-09-09T15:09:18;21.60;99.90
16863;DHT22;52193;48.216;-1.698;2022-09-09T15:11:45;21.80;99.90
16863;DHT22;52193;48.216;-1.698;2022-09-09T15:14:12;22.50;99.90
16863;DHT22;52193;48.216;-1.698;2022-09-09T15:16:40;23.20;99.90
16863;DHT22;52193;48.216;-1.698;2022-09-09T15:19:07;23.80;99.90
16863;DHT22;52193;48.216;-1.698;2022-09-09T15:21:36;24.00;99.90
16863;DHT22;52193;48.216;-1.698;2022-09-09T15:24:05;24.20;99.90
16863;DHT22;52193;48.216;-1.698;2022-09-09T15:26:34;24.30;99.90
16863;DHT22;52193;48.216;-1.698;2022-09-09T15:29:04;24.70;99.90
16863;DHT22;52193;48.216;-1.698;2022-09-09T15:31:31;25.00;99.90
16863;DHT22;52193;48.216;-1.698;2022-09-09T15:33:59;25.10;99.90
16863;DHT22;52193;48.216;-1.698;2022-09-09T15:36:28;24.80;99.90
16863;DHT22;52193;48.216;-1.698;2022-09-09T15:38:58;24.60;99.90
16863;DHT22;52193;48.216;-1.698;2022-09-09T15:41:27;24.60;99.90
16863;DHT22;52193;48.216;-1.698;2022-09-09T15:43:55;24.80;99.90